Time;durP1;ratioP1;P1;durP2;ratioP2;P2;SDS_P1;SDS_P2;PMS_P1;PMS_P2;Temp;Humidity;BMP_temperature;BMP_pressure;BME280_temperature;BME280_humidity;BME280_pressure;Samples;Min_cycle;Max_cycle;Signal;HPM_P1;HPM_P2
2022/08/23 00:01:55;;;;;;;4.40;1.90;;;19.50;47.30;;;;;;5033358;28;20207;-77
2022/08/23 00:04:25;;;;;;;2.30;1.70;;;19.60;47.60;;;;;;5048971;28;20176;-77
2022/08/23 00:06:55;;;;;;;5.53;1.67;;;19.70;46.20;;;;;;5052642;28;20564;-75
2022/08/23 00:09:25;;;;;;;4.40;1.67;;;19.90;46.30;;;;;;5053389;28;20249;-76
2022/08/23 00:12:03;;;;;;;7.57;1.70;;;20.00;46.10;;;;;;5053122;28;20172;-77
2022/08/23 00:14:33;;;;;;;7.40;1.90;;;20.00;46.90;;;;;;5053027;28;20175;-77
2022/08/23 00:17:02;;;;;;;4.10;2.63;;;20.10;45.60;;;;;;5051481;28;20183;-76
2022/08/23 00:19:29;;;;;;;4.57;2.50;;;20.20;44.70;;;;;;5033345;28;20176;-75
2022/08/23 00:21:57;;;;;;;3.70;1.60;;;20.30;45.00;;;;;;5034350;28;20690;-81
2022/08/23 00:24:25;;;;;;;2.60;1.63;;;20.30;43.00;;;;;;5053180;28;20222;-75
2022/08/23 00:27:09;;;;;;;6.20;1.67;;;20.30;43.40;;;;;;5052978;28;20289;-76
2022/08/23 00:29:41;;;;;;;2.10;0.87;;;20.30;42.20;;;;;;5043474;28;20179;-77
2022/08/23 00:32:12;;;;;;;3.53;1.77;;;20.30;41.80;;;;;;5040909;28;20507;-77
2022/08/23 00:34:40;;;;;;;5.30;2.00;;;20.30;41.70;;;;;;5053030;28;20172;-78
2022/08/23 00:37:09;;;;;;;5.90;2.23;;;20.50;42.80;;;;;;5051587;28;20601;-76
2022/08/23 00:39:37;;;;;;;4.90;1.93;;;20.60;42.40;;;;;;5052469;28;20694;-76
2022/08/23 00:48:13;;;;;;;4.30;1.57;;;20.50;42.00;;;;;;5052895;28;20237;-78
2022/08/23 00:50:54;;;;;;;2.27;1.40;;;20.80;41.90;;;;;;5052687;28;20191;-77
2022/08/23 00:53:25;;;;;;;9.73;2.77;;;20.90;42.10;;;;;;5052375;28;20699;-78
2022/08/23 00:55:57;;;;;;;3.93;1.53;;;21.00;43.10;;;;;;5052248;28;20176;-78
2022/08/23 00:58:25;;;;;;;6.60;1.67;;;21.00;42.60;;;;;;5052542;28;20180;-76
2022/08/23 01:00:55;;;;;;;4.93;1.50;;;20.80;43.60;;;;;;5051018;28;20221;-76
2022/08/23 01:03:25;;;;;;;1.73;1.10;;;21.10;43.10;;;;;;5052560;28;20172;-78
2022/08/23 01:06:13;;;;;;;4.20;1.47;;;21.10;41.30;;;;;;5052079;28;20253;-76
2022/08/23 01:08:47;;;;;;;2.40;1.40;;;21.30;41.00;;;;;;5052835;28;20180;-77
2022/08/23 01:11:27;;;;;;;4.37;1.67;;;21.20;41.30;;;;;;5052612;28;20191;-76
2022/08/23 01:14:10;;;;;;;4.03;1.60;;;21.10;41.50;;;;;;5052268;28;20172;-78
2022/08/23 01:16:48;;;;;;;1.83;1.20;;;21.30;41.60;;;;;;5052416;28;20633;-75
2022/08/23 01:19:30;;;;;;;3.90;1.20;;;21.30;40.70;;;;;;5055339;28;20256;-77
2022/08/23 01:22:20;;;;;;;5.00;1.40;;;21.40;40.40;;;;;;5056015;28;20222;-79
2022/08/23 01:24:48;;;;;;;3.43;1.40;;;21.40;40.20;;;;;;5051187;28;20646;-79
2022/08/23 01:27:15;;;;;;;3.03;1.17;;;21.60;40.60;;;;;;5055813;28;20183;-74
2022/08/23 01:29:43;;;;;;;4.43;1.23;;;21.70;39.80;;;;;;5045525;28;20638;-78
2022/08/23 01:32:11;;;;;;;3.23;1.30;;;21.80;39.50;;;;;;5055289;28;20214;-76
2022/08/23 01:34:39;;;;;;;2.33;1.30;;;21.70;40.00;;;;;;5056027;28;20214;-75
2022/08/23 01:37:08;;;;;;;3.13;1.37;;;21.50;39.90;;;;;;5041764;28;20184;-77
2022/08/23 01:39:36;;;;;;;2.77;1.23;;;21.70;39.90;;;;;;5038066;28;20215;-77
2022/08/23 01:42:04;;;;;;;4.57;1.40;;;21.90;40.10;;;;;;5037336;28;20203;-75
2022/08/23 01:44:31;;;;;;;3.50;0.80;;;21.70;39.90;;;;;;5044018;28;20176;-76
2022/08/23 01:46:59;;;;;;;4.57;1.20;;;21.80;39.10;;;;;;5016550;28;20253;-77
2022/08/23 01:49:26;;;;;;;7.00;1.30;;;21.90;39.30;;;;;;5050154;28;20583;-76
2022/08/23 01:51:54;;;;;;;3.03;1.30;;;22.10;39.10;;;;;;5038224;28;20187;-76
2022/08/23 01:54:21;;;;;;;6.47;1.50;;;21.80;39.50;;;;;;5037972;28;20203;-76
2022/08/23 01:56:49;;;;;;;3.07;1.00;;;21.60;39.40;;;;;;5031393;28;20492;-78
2022/08/23 01:59:16;;;;;;;1.63;0.80;;;21.30;39.60;;;;;;5034482;28;20185;-77
2022/08/23 02:01:43;;;;;;;1.17;0.90;;;21.30;40.00;;;;;;5042407;28;20215;-76
2022/08/23 02:04:11;;;;;;;2.77;0.97;;;21.30;40.00;;;;;;5046933;28;20272;-78
2022/08/23 02:06:38;;;;;;;4.37;1.20;;;21.90;39.20;;;;;;5054392;28;20661;-80
2022/08/23 02:09:06;;;;;;;1.57;1.10;;;22.30;39.00;;;;;;5055632;28;20176;-80
2022/08/23 02:11:37;;;;;;;3.10;1.20;;;22.80;37.80;;;;;;5055515;28;20187;-79
2022/08/23 02:14:11;;;;;;;5.53;1.37;;;22.80;37.60;;;;;;5055348;28;20658;-82
2022/08/23 02:16:43;;;;;;;4.43;1.13;;;23.00;37.80;;;;;;5054746;28;20207;-78
2022/08/23 02:19:13;;;;;;;1.70;1.00;;;23.10;37.50;;;;;;5055485;28;20234;-75
2022/08/23 02:21:41;;;;;;;2.97;1.13;;;22.70;37.50;;;;;;5054761;28;20299;-74
2022/08/23 02:24:14;;;;;;;1.73;0.80;;;22.30;38.50;;;;;;5015582;28;20168;-80
2022/08/23 02:26:45;;;;;;;1.17;1.00;;;22.00;37.50;;;;;;5031089;28;20193;-78
2022/08/23 02:29:13;;;;;;;2.50;0.90;;;21.80;38.90;;;;;;5038263;28;20711;-78
2022/08/23 02:31:42;;;;;;;1.80;1.00;;;21.60;41.40;;;;;;5045472;28;20280;-78
2022/08/23 02:34:11;;;;;;;1.77;0.90;;;21.20;41.90;;;;;;5042775;28;20181;-81
2022/08/23 02:36:39;;;;;;;3.97;1.00;;;20.90;42.20;;;;;;5055200;28;20679;-76
2022/08/23 02:39:08;;;;;;;4.10;1.10;;;20.60;45.20;;;;;;5040558;28;20688;-84
2022/08/23 02:41:37;;;;;;;3.37;1.40;;;19.90;47.30;;;;;;5055230;28;20638;-79
2022/08/23 02:44:05;;;;;;;3.50;1.60;;;19.60;50.60;;;;;;5055065;28;20253;-78
2022/08/23 02:46:33;;;;;;;4.10;1.40;;;19.30;53.60;;;;;;5054746;28;20262;-78
2022/08/23 02:49:00;;;;;;;4.47;1.47;;;19.20;55.70;;;;;;5053731;28;20184;-84
2022/08/23 02:51:28;;;;;;;4.50;1.10;;;19.30;53.90;;;;;;5054932;28;20230;-80
2022/08/23 02:53:55;;;;;;;3.63;1.40;;;19.40;52.60;;;;;;5053626;28;20552;-81
2022/08/23 02:56:23;;;;;;;2.13;1.33;;;19.50;51.70;;;;;;5049515;28;20274;-80
2022/08/23 02:58:52;;;;;;;5.03;1.70;;;19.70;51.10;;;;;;5034031;28;20611;-80
2022/08/23 03:01:22;;;;;;;7.13;1.80;;;19.70;51.30;;;;;;5038205;28;20261;-79
2022/08/23 03:03:49;;;;;;;15.30;2.83;;;19.60;53.70;;;;;;5034760;28;20283;-75
2022/08/23 03:06:17;;;;;;;18.47;3.13;;;17.70;64.00;;;;;;5025508;28;20227;-78
2022/08/23 03:08:45;;;;;;;14.17;2.77;;;16.60;69.40;;;;;;5028738;28;20352;-76
2022/08/23 03:11:14;;;;;;;12.77;3.30;;;15.90;71.80;;;;;;5042056;28;20207;-82
2022/08/23 03:13:44;;;;;;;14.47;2.63;;;15.50;73.00;;;;;;5035253;28;20697;-81
2022/08/23 03:16:12;;;;;;;12.97;2.63;;;15.10;74.10;;;;;;5037326;28;20198;-82
2022/08/23 03:18:40;;;;;;;11.57;2.50;;;15.10;74.00;;;;;;5032895;28;20184;-81
2022/08/23 03:21:08;;;;;;;14.97;2.77;;;15.00;74.90;;;;;;5036370;28;20231;-78
2022/08/23 03:23:38;;;;;;;20.07;3.43;;;15.20;75.30;;;;;;5046555;28;20190;-81
2022/08/23 03:26:08;;;;;;;27.73;3.20;;;15.10;75.20;;;;;;5052806;28;20180;-78
2022/08/23 03:28:37;;;;;;;17.27;3.10;;;15.40;74.90;;;;;;5053066;28;20196;-80
2022/08/23 03:31:06;;;;;;;17.07;2.80;;;15.40;74.90;;;;;;5036724;28;20625;-77
2022/08/23 03:33:33;;;;;;;15.37;3.13;;;15.30;74.40;;;;;;5030308;28;20180;-82
2022/08/23 03:36:03;;;;;;;15.57;2.57;;;15.20;74.90;;;;;;5034063;28;20650;-79
2022/08/23 03:38:32;;;;;;;24.07;2.73;;;14.90;75.30;;;;;;5030968;28;20188;-85
2022/08/23 03:41:00;;;;;;;13.00;2.10;;;14.40;76.00;;;;;;5034258;28;20228;-78
2022/08/23 03:43:27;;;;;;;12.97;2.27;;;14.20;75.70;;;;;;5064404;28;20246;-79
2022/08/23 03:45:55;;;;;;;16.43;1.97;;;14.00;76.50;;;;;;5034974;28;20200;-82
2022/08/23 03:48:23;;;;;;;10.27;2.30;;;13.90;76.60;;;;;;5036078;28;20323;-78
2022/08/23 03:50:51;;;;;;;10.97;1.80;;;13.80;77.40;;;;;;5040219;28;20180;-79
2022/08/23 03:53:18;;;;;;;11.77;2.23;;;13.70;78.10;;;;;;5033776;28;20200;-77
2022/08/23 03:55:46;;;;;;;7.90;2.33;;;13.30;80.00;;;;;;5038196;28;20188;-75
2022/08/23 03:58:13;;;;;;;12.20;1.70;;;13.30;81.20;;;;;;5033055;28;20189;-75
2022/08/23 04:00:41;;;;;;;11.43;2.20;;;13.10;82.30;;;;;;5032397;28;20208;-76
2022/08/23 04:03:09;;;;;;;8.23;2.17;;;13.00;81.30;;;;;;5035086;28;20203;-77
2022/08/23 04:05:36;;;;;;;10.67;1.43;;;12.80;81.00;;;;;;5032336;28;20580;-78
2022/08/23 04:08:11;;;;;;;9.17;1.47;;;12.70;80.80;;;;;;5032510;28;20187;-76
2022/08/23 04:10:38;;;;;;;14.93;2.23;;;12.50;81.30;;;;;;5035989;28;20309;-77
2022/08/23 04:13:07;;;;;;;9.60;2.13;;;12.60;81.30;;;;;;5032867;28;20192;-78
2022/08/23 04:15:35;;;;;;;10.27;1.63;;;12.50;81.60;;;;;;5033796;28;20206;-79
2022/08/23 04:18:03;;;;;;;8.93;2.10;;;12.40;81.30;;;;;;5037866;28;20188;-83
2022/08/23 04:20:31;;;;;;;11.77;1.97;;;12.40;81.20;;;;;;5039328;28;20181;-78
2022/08/23 04:22:58;;;;;;;13.80;2.30;;;12.40;81.40;;;;;;5034845;28;20250;-74
2022/08/23 04:25:26;;;;;;;19.07;3.00;;;12.30;81.60;;;;;;5026872;28;20267;-78
2022/08/23 04:27:53;;;;;;;7.37;2.10;;;12.30;83.00;;;;;;5032075;28;20184;-82
2022/08/23 04:30:21;;;;;;;9.27;2.20;;;12.00;82.90;;;;;;5036066;28;20200;-79
2022/08/23 04:32:49;;;;;;;11.77;1.97;;;11.80;82.90;;;;;;5037795;28;20255;-86
2022/08/23 04:35:16;;;;;;;8.67;1.50;;;11.70;83.00;;;;;;5033100;28;20203;-76
2022/08/23 04:37:44;;;;;;;7.20;2.03;;;11.60;83.20;;;;;;5032198;28;20290;-81
2022/08/23 04:42:57;;;;;;;9.43;2.20;;;11.20;84.00;;;;;;5029504;28;20211;-74
2022/08/23 04:45:26;;;;;;;5.10;1.60;;;10.90;86.70;;;;;;5033343;28;20206;-77
2022/08/23 04:47:53;;;;;;;7.37;1.60;;;10.70;87.00;;;;;;5032671;28;20191;-75
2022/08/23 04:50:21;;;;;;;7.47;1.73;;;10.70;87.10;;;;;;5032642;28;20218;-74
2022/08/23 04:52:49;;;;;;;7.80;1.90;;;10.70;87.10;;;;;;5050508;28;20180;-77
2022/08/23 04:55:16;;;;;;;3.50;1.43;;;10.70;87.10;;;;;;5052163;28;20535;-75
2022/08/23 04:57:44;;;;;;;4.77;1.53;;;10.70;87.00;;;;;;5033442;28;20314;-77
2022/08/23 05:00:13;;;;;;;4.17;1.53;;;10.60;86.50;;;;;;5041436;28;20617;-77
2022/08/23 05:02:40;;;;;;;5.50;1.53;;;10.50;86.00;;;;;;5051632;28;20218;-73
2022/08/23 05:05:09;;;;;;;6.10;1.47;;;10.50;86.50;;;;;;5045098;28;20190;-75
2022/08/23 05:07:39;;;;;;;4.17;1.47;;;10.40;86.40;;;;;;5029841;28;20189;-79
2022/08/23 05:10:07;;;;;;;8.60;1.90;;;10.40;86.20;;;;;;5039884;28;20191;-73
2022/08/23 05:12:35;;;;;;;4.40;1.70;;;10.20;86.80;;;;;;5047191;28;20187;-75
2022/08/23 05:15:03;;;;;;;7.53;1.80;;;10.20;87.50;;;;;;5051255;28;20761;-75
2022/08/23 05:17:31;;;;;;;5.90;1.50;;;10.10;87.30;;;;;;5052375;28;20229;-74
2022/08/23 05:19:58;;;;;;;5.57;1.87;;;10.00;87.60;;;;;;5052581;28;20216;-78
2022/08/23 05:22:25;;;;;;;8.57;1.60;;;10.00;88.10;;;;;;5049657;28;20732;-76
2022/08/23 05:24:53;;;;;;;1.67;1.10;;;10.00;87.80;;;;;;5052461;28;20183;-79
2022/08/23 05:27:20;;;;;;;3.10;1.70;;;9.90;88.10;;;;;;5052356;28;20189;-75
2022/08/23 05:29:48;;;;;;;3.40;1.80;;;9.90;88.30;;;;;;5042593;28;20233;-79
2022/08/23 05:32:16;;;;;;;4.23;1.63;;;9.80;88.00;;;;;;5043467;28;20183;-75
2022/08/23 05:34:43;;;;;;;5.27;1.70;;;9.90;88.40;;;;;;5042284;28;20646;-76
2022/08/23 05:37:10;;;;;;;4.23;1.63;;;9.80;88.50;;;;;;5064144;28;20191;-74
2022/08/23 05:39:38;;;;;;;4.17;1.97;;;9.80;88.60;;;;;;5037723;28;20223;-76
2022/08/23 05:42:11;;;;;;;6.73;1.60;;;9.70;88.70;;;;;;5032935;28;20687;-78
2022/08/23 05:44:38;;;;;;;4.07;1.53;;;9.70;89.00;;;;;;5036652;28;20210;-74
2022/08/23 05:47:08;;;;;;;8.37;2.10;;;9.70;88.70;;;;;;5032960;28;20731;-75
2022/08/23 05:49:36;;;;;;;7.60;1.73;;;9.70;89.30;;;;;;5023725;28;20182;-85
2022/08/23 05:52:09;;;;;;;7.63;1.50;;;9.80;89.50;;;;;;5031207;28;20649;-78
2022/08/23 05:54:38;;;;;;;7.43;1.67;;;9.80;89.40;;;;;;5024239;28;20270;-77
2022/08/23 05:57:06;;;;;;;3.63;1.50;;;9.70;89.80;;;;;;5032173;28;20234;-78
2022/08/23 05:59:33;;;;;;;7.57;2.13;;;9.70;89.50;;;;;;5031329;28;20182;-81
2022/08/23 06:02:01;;;;;;;6.27;1.50;;;9.70;89.70;;;;;;5029519;28;20227;-72
2022/08/23 06:04:28;;;;;;;1.73;1.30;;;9.70;89.80;;;;;;5028843;28;20194;-80
2022/08/23 06:06:57;;;;;;;3.10;1.57;;;9.70;89.60;;;;;;5036861;28;20211;-84
2022/08/23 06:09:25;;;;;;;6.10;1.67;;;9.70;89.80;;;;;;5037255;28;20582;-81
2022/08/23 06:11:52;;;;;;;1.60;1.30;;;9.70;90.10;;;;;;5033074;28;20539;-74
2022/08/23 06:14:20;;;;;;;5.70;1.93;;;9.60;89.90;;;;;;5032888;28;20716;-74
2022/08/23 06:16:49;;;;;;;3.33;1.43;;;9.50;90.20;;;;;;5033633;28;20182;-73
2022/08/23 06:19:17;;;;;;;3.13;1.40;;;9.40;90.00;;;;;;5023224;28;20191;-79
2022/08/23 06:21:45;;;;;;;6.07;1.87;;;9.40;90.40;;;;;;5038876;28;20227;-78
2022/08/23 06:24:13;;;;;;;3.30;1.70;;;9.40;90.50;;;;;;5033216;28;20198;-72
2022/08/23 06:26:44;;;;;;;5.67;1.77;;;9.40;90.40;;;;;;5034452;28;20191;-77
2022/08/23 06:29:16;;;;;;;2.20;1.20;;;9.40;90.40;;;;;;5027630;28;20191;-75
2022/08/23 06:31:48;;;;;;;1.97;1.30;;;9.30;89.90;;;;;;5029742;28;20655;-78
2022/08/23 06:34:24;;;;;;;5.73;1.60;;;9.40;90.40;;;;;;5029738;28;20520;-79
2022/08/23 06:36:57;;;;;;;4.07;1.30;;;9.30;90.00;;;;;;5039439;28;20236;-81
2022/08/23 06:39:26;;;;;;;2.03;1.30;;;9.30;90.10;;;;;;5030325;28;20618;-81
2022/08/23 06:42:01;;;;;;;3.17;1.30;;;9.30;90.30;;;;;;5031657;28;20214;-77
2022/08/23 06:44:30;;;;;;;2.47;1.30;;;9.30;90.40;;;;;;5034436;28;20294;-83
2022/08/23 06:46:57;;;;;;;1.40;1.27;;;9.30;90.40;;;;;;5025183;28;20200;-80
2022/08/23 06:49:26;;;;;;;2.87;1.60;;;9.30;90.30;;;;;;5042334;28;20182;-81
2022/08/23 06:51:55;;;;;;;2.53;1.50;;;9.30;90.70;;;;;;5032416;28;20191;-74
2022/08/23 06:54:26;;;;;;;1.80;1.10;;;9.30;90.20;;;;;;5033112;28;20187;-74
2022/08/23 06:56:54;;;;;;;2.87;1.40;;;9.20;90.00;;;;;;5032090;28;20200;-78
2022/08/23 06:59:22;;;;;;;1.30;1.20;;;9.20;89.90;;;;;;5030864;28;20285;-79
2022/08/23 07:01:54;;;;;;;6.17;1.60;;;9.20;89.60;;;;;;5031063;28;20705;-73
2022/08/23 07:04:28;;;;;;;3.77;1.40;;;9.20;89.70;;;;;;5035740;28;20267;-74
2022/08/23 07:06:56;;;;;;;3.97;1.50;;;9.20;89.40;;;;;;5034614;28;20178;-76
2022/08/23 07:09:24;;;;;;;3.60;1.40;;;9.20;89.30;;;;;;5026477;28;20180;-77
2022/08/23 07:11:51;;;;;;;3.77;1.40;;;9.20;89.50;;;;;;5030588;28;20191;-79
2022/08/23 07:14:21;;;;;;;3.50;1.27;;;9.20;89.10;;;;;;5024603;28;20274;-79
2022/08/23 07:16:54;;;;;;;2.03;1.30;;;9.30;89.50;;;;;;5034055;28;20282;-76
2022/08/23 07:19:26;;;;;;;1.80;1.30;;;9.30;88.80;;;;;;5029329;28;20549;-77
2022/08/23 07:21:53;;;;;;;2.70;1.50;;;9.30;88.80;;;;;;5028937;28;20208;-74
2022/08/23 07:24:21;;;;;;;2.83;1.10;;;9.30;88.10;;;;;;5030136;28;20645;-77
2022/08/23 07:26:50;;;;;;;2.47;1.30;;;9.20;88.30;;;;;;5030614;28;20216;-78
2022/08/23 07:29:20;;;;;;;2.77;1.57;;;9.30;88.30;;;;;;5032680;28;20241;-75
2022/08/23 07:31:53;;;;;;;1.63;1.17;;;9.30;88.60;;;;;;5037065;28;20210;-75
2022/08/23 07:34:22;;;;;;;2.73;1.53;;;9.30;88.60;;;;;;5035100;28;20193;-76
2022/08/23 07:36:51;;;;;;;2.00;1.60;;;9.30;88.70;;;;;;5030948;28;20187;-75
2022/08/23 07:39:19;;;;;;;3.07;1.33;;;9.30;88.50;;;;;;5037413;28;20292;-77
2022/08/23 07:41:46;;;;;;;3.47;1.60;;;9.40;88.70;;;;;;5031028;28;20318;-75
2022/08/23 07:44:14;;;;;;;4.03;1.60;;;9.30;88.60;;;;;;5036341;28;20177;-80
2022/08/23 07:46:44;;;;;;;3.77;1.30;;;9.30;88.90;;;;;;5038002;28;20188;-77
2022/08/23 07:49:12;;;;;;;1.57;1.20;;;9.30;88.20;;;;;;5035862;28;20186;-77
2022/08/23 07:51:44;;;;;;;2.53;1.50;;;9.30;88.30;;;;;;5033080;28;20188;-76
2022/08/23 07:54:12;;;;;;;7.13;1.50;;;9.20;88.50;;;;;;5029804;28;20242;-77
2022/08/23 07:56:40;;;;;;;4.60;1.40;;;9.30;89.00;;;;;;5034345;28;20233;-77
2022/08/23 07:59:09;;;;;;;4.50;1.50;;;9.30;88.70;;;;;;5033747;28;20178;-77
2022/08/23 08:01:37;;;;;;;2.67;1.97;;;9.30;89.50;;;;;;5037780;28;20266;-75
2022/08/23 08:04:06;;;;;;;2.17;1.77;;;9.30;89.00;;;;;;5032959;28;20184;-77
2022/08/23 08:06:46;;;;;;;3.73;1.87;;;9.40;89.20;;;;;;5041162;28;20184;-75
2022/08/23 08:09:15;;;;;;;4.20;1.83;;;9.20;88.80;;;;;;5045378;28;20283;-75
2022/08/23 08:11:46;;;;;;;2.53;1.57;;;9.20;89.30;;;;;;5052217;28;20177;-79
2022/08/23 08:14:15;;;;;;;3.37;1.57;;;9.20;89.30;;;;;;5052714;28;20186;-82
2022/08/23 08:16:45;;;;;;;2.00;1.77;;;9.20;89.30;;;;;;5053740;28;20229;-87
2022/08/23 08:19:15;;;;;;;2.00;1.60;;;9.20;89.90;;;;;;5046378;28;20535;-84
2022/08/23 08:21:44;;;;;;;2.80;1.50;;;9.20;90.10;;;;;;5034251;28;20201;-84
2022/08/23 08:24:13;;;;;;;2.33;1.80;;;9.10;90.20;;;;;;5047808;28;20243;-76
2022/08/23 08:26:42;;;;;;;3.30;1.70;;;9.00;90.60;;;;;;5054666;28;20664;-79
2022/08/23 08:29:10;;;;;;;2.00;1.80;;;8.80;90.20;;;;;;5046304;28;20645;-79
2022/08/23 08:31:39;;;;;;;2.80;1.77;;;8.70;90.50;;;;;;5045147;28;20202;-81
2022/08/23 08:34:07;;;;;;;2.07;1.70;;;8.70;90.60;;;;;;5052931;28;20192;-86
2022/08/23 08:36:48;;;;;;;3.27;1.60;;;8.60;90.30;;;;;;5054159;28;20189;-80
2022/08/23 08:39:22;;;;;;;2.93;1.60;;;8.50;90.30;;;;;;5053689;28;20220;-83
2022/08/23 08:42:21;;;;;;;2.57;1.50;;;8.50;90.60;;;;;;5053543;28;20564;-77
2022/08/23 08:45:07;;;;;;;3.00;2.03;;;8.50;90.50;;;;;;5053976;28;20271;-83
2022/08/23 08:47:50;;;;;;;3.67;1.87;;;8.50;91.00;;;;;;5053086;28;20183;-84
2022/08/23 08:50:25;;;;;;;3.47;1.83;;;8.50;90.90;;;;;;5053045;28;20169;-75
2022/08/23 08:53:01;;;;;;;3.30;2.10;;;8.50;90.90;;;;;;5051270;28;20203;-85
2022/08/23 08:55:42;;;;;;;5.93;2.50;;;8.40;91.00;;;;;;5016684;28;20190;-87
2022/08/23 08:58:23;;;;;;;1.97;1.87;;;8.40;91.20;;;;;;5040781;28;20188;-86
2022/08/23 09:00:51;;;;;;;3.73;1.83;;;8.30;91.00;;;;;;5021052;28;22153;-80
2022/08/23 09:03:20;;;;;;;2.37;1.83;;;8.20;91.00;;;;;;5033059;28;20194;-81
2022/08/23 09:06:27;;;;;;;2.30;2.00;;;8.20;91.20;;;;;;5031368;28;20192;-82
2022/08/23 09:08:57;;;;;;;1.90;1.70;;;8.20;91.40;;;;;;5036860;28;20279;-80
2022/08/23 09:11:38;;;;;;;2.80;1.80;;;8.20;91.30;;;;;;5037914;28;20181;-79
2022/08/23 09:14:45;;;;;;;2.77;1.83;;;8.20;91.30;;;;;;5050512;28;20259;-83
2022/08/23 09:17:40;;;;;;;1.80;1.70;;;8.10;91.40;;;;;;5043469;28;20187;-80
2022/08/23 09:20:09;;;;;;;2.23;1.90;;;8.10;91.50;;;;;;5036122;28;20206;-78
2022/08/23 09:22:46;;;;;;;3.20;1.67;;;8.00;91.40;;;;;;5024740;28;20240;-87
2022/08/23 09:25:15;;;;;;;2.27;1.90;;;8.00;91.50;;;;;;5044199;28;20234;-81
2022/08/23 09:27:44;;;;;;;1.60;1.50;;;8.00;91.30;;;;;;5036572;28;20188;-83
2022/08/23 09:30:15;;;;;;;1.70;1.60;;;8.00;91.20;;;;;;5036579;28;20176;-77
2022/08/23 09:32:45;;;;;;;1.60;1.50;;;8.00;91.20;;;;;;5021928;28;20197;-77
2022/08/23 09:35:23;;;;;;;2.70;1.67;;;7.90;91.00;;;;;;5035365;28;20181;-81
2022/08/23 09:38:20;;;;;;;2.43;1.80;;;8.00;91.40;;;;;;5036464;28;20215;-76
2022/08/23 09:40:50;;;;;;;5.07;1.80;;;8.00;91.30;;;;;;5037743;28;20574;-78
2022/08/23 09:43:25;;;;;;;3.80;2.20;;;7.90;90.80;;;;;;5041229;28;20234;-81
2022/08/23 09:45:58;;;;;;;4.50;1.70;;;7.90;91.30;;;;;;5051207;28;20177;-79
2022/08/23 09:48:39;;;;;;;2.13;1.90;;;8.00;91.50;;;;;;5040647;28;20517;-80
2022/08/23 09:51:19;;;;;;;2.23;1.73;;;7.90;91.40;;;;;;5054668;28;20172;-74
2022/08/23 09:53:50;;;;;;;3.13;1.90;;;7.90;91.60;;;;;;5040936;28;20635;-82
2022/08/23 09:56:27;;;;;;;3.07;2.00;;;7.80;91.10;;;;;;5040596;28;20212;-77
2022/08/23 09:58:54;;;;;;;4.33;1.87;;;7.90;91.30;;;;;;5047219;28;20208;-79
2022/08/23 10:01:27;;;;;;;2.20;1.90;;;7.90;91.60;;;;;;5049661;28;20686;-76
2022/08/23 10:04:23;;;;;;;2.17;1.80;;;7.80;91.30;;;;;;5034998;28;20178;-77
2022/08/23 10:06:52;;;;;;;1.90;1.63;;;7.90;91.70;;;;;;5038144;28;20279;-76
2022/08/23 10:09:33;;;;;;;3.73;1.70;;;7.80;91.20;;;;;;5052592;28;20590;-79
2022/08/23 10:12:01;;;;;;;2.57;1.80;;;7.70;91.20;;;;;;5033981;28;20552;-77
2022/08/23 10:14:31;;;;;;;3.33;1.70;;;7.70;91.60;;;;;;5042767;28;20214;-75
2022/08/23 10:17:29;;;;;;;1.67;1.57;;;7.70;91.40;;;;;;5048248;28;20546;-77
2022/08/23 10:20:27;;;;;;;1.90;1.80;;;7.70;91.20;;;;;;5047250;28;20199;-74
2022/08/23 10:23:23;;;;;;;2.07;1.87;;;7.70;91.40;;;;;;5048047;28;20302;-75
2022/08/23 10:25:58;;;;;;;3.40;1.80;;;7.70;91.50;;;;;;5031120;28;20390;-76
2022/08/23 10:31:47;;;;;;;1.50;1.40;;;7.60;91.30;;;;;;5036221;28;20200;-79
2022/08/23 10:34:41;;;;;;;1.73;1.63;;;7.50;91.30;;;;;;5055045;28;20184;-76
2022/08/23 10:37:34;;;;;;;4.27;1.90;;;7.60;91.50;;;;;;5042101;28;20698;-76
2022/08/23 10:40:38;;;;;;;4.17;1.60;;;7.50;91.30;;;;;;5044607;28;20627;-78
2022/08/23 10:43:24;;;;;;;2.10;1.90;;;7.60;91.60;;;;;;5047859;28;20208;-76
2022/08/23 10:45:56;;;;;;;2.50;1.80;;;7.50;91.30;;;;;;5051768;28;20177;-73
2022/08/23 10:48:28;;;;;;;2.23;1.90;;;7.40;91.20;;;;;;5047130;28;20592;-75
2022/08/23 10:51:00;;;;;;;2.23;1.77;;;7.50;91.70;;;;;;5045344;28;20545;-75
2022/08/23 10:53:36;;;;;;;3.87;2.00;;;7.50;91.70;;;;;;5035675;28;20659;-74
2022/08/23 10:56:06;;;;;;;2.23;2.00;;;7.40;91.50;;;;;;5049512;28;20234;-77
2022/08/23 10:58:38;;;;;;;1.73;1.63;;;7.40;91.50;;;;;;5044733;28;20192;-75
2022/08/23 11:01:07;;;;;;;2.30;2.10;;;7.40;91.70;;;;;;5036432;28;20566;-75
2022/08/23 11:03:46;;;;;;;3.60;1.93;;;7.40;91.50;;;;;;5025493;28;20639;-73
2022/08/23 11:06:34;;;;;;;2.40;1.70;;;7.40;91.70;;;;;;5032987;28;20246;-75
2022/08/23 11:09:18;;;;;;;1.60;1.47;;;7.50;91.80;;;;;;5044821;28;20188;-78
2022/08/23 11:11:48;;;;;;;3.13;1.60;;;7.50;91.90;;;;;;5043860;28;20819;-74
2022/08/23 11:14:31;;;;;;;1.87;1.73;;;7.50;91.60;;;;;;5042207;28;20181;-74
2022/08/23 11:17:08;;;;;;;2.27;2.07;;;7.40;91.40;;;;;;5047278;28;20191;-76
2022/08/23 11:20:00;;;;;;;2.43;1.60;;;7.40;91.60;;;;;;5037476;28;20188;-74
2022/08/23 11:22:33;;;;;;;3.27;1.70;;;7.40;91.40;;;;;;5030920;28;20214;-75
2022/08/23 11:25:24;;;;;;;7.03;1.90;;;7.30;91.40;;;;;;5038102;28;20583;-76
2022/08/23 11:28:17;;;;;;;3.60;2.40;;;7.40;91.50;;;;;;5045186;28;20316;-73
2022/08/23 11:30:57;;;;;;;3.00;1.80;;;7.40;91.60;;;;;;5047988;28;20180;-75
2022/08/23 11:33:30;;;;;;;5.30;2.00;;;7.30;91.50;;;;;;5038959;28;20203;-81
2022/08/23 11:36:20;;;;;;;3.03;1.80;;;7.30;91.40;;;;;;5051567;28;20183;-75
2022/08/23 11:38:47;;;;;;;2.70;1.60;;;7.30;91.30;;;;;;5041151;28;20183;-80
2022/08/23 11:41:24;;;;;;;4.67;1.93;;;7.40;91.00;;;;;;5041544;28;20570;-76
2022/08/23 11:44:06;;;;;;;2.57;1.77;;;7.40;91.10;;;;;;5053745;28;20208;-73
2022/08/23 11:46:36;;;;;;;1.80;1.70;;;7.30;90.80;;;;;;5053642;28;20560;-76
2022/08/23 11:49:22;;;;;;;4.63;2.00;;;7.30;90.70;;;;;;5039725;28;20193;-79
2022/08/23 11:52:36;;;;;;;3.47;2.10;;;7.40;91.10;;;;;;5043159;28;20208;-76
2022/08/23 11:55:27;;;;;;;4.97;2.00;;;7.40;91.00;;;;;;4998332;28;20224;-74
2022/08/23 11:58:04;;;;;;;2.70;2.00;;;7.30;90.70;;;;;;5035675;28;20263;-84
2022/08/23 12:01:06;;;;;;;3.40;2.10;;;7.40;91.00;;;;;;5047672;28;20184;-77
2022/08/23 12:03:51;;;;;;;2.87;1.83;;;7.30;90.80;;;;;;5053000;28;20249;-76
2022/08/23 12:06:41;;;;;;;3.93;2.23;;;7.40;90.70;;;;;;5052524;28;20184;-79
2022/08/23 12:09:25;;;;;;;6.43;2.27;;;7.40;90.90;;;;;;5052512;28;20259;-77
2022/08/23 12:11:55;;;;;;;4.33;1.83;;;7.50;91.00;;;;;;5043851;28;20175;-78
2022/08/23 12:14:35;;;;;;;3.00;2.10;;;7.50;90.80;;;;;;5053018;28;20325;-79
2022/08/23 12:17:25;;;;;;;1.83;1.73;;;7.50;90.90;;;;;;5043660;28;20772;-77
2022/08/23 12:20:07;;;;;;;4.83;1.80;;;7.60;91.00;;;;;;5045043;28;20179;-85
2022/08/23 12:22:56;;;;;;;4.73;2.13;;;7.50;90.70;;;;;;5052032;28;20211;-77
2022/08/23 12:25:24;;;;;;;5.10;2.77;;;7.50;90.80;;;;;;5030079;28;20707;-79
2022/08/23 12:28:17;;;;;;;5.17;1.93;;;7.60;91.00;;;;;;5051680;28;20184;-77
2022/08/23 12:31:19;;;;;;;6.93;2.37;;;7.60;91.00;;;;;;5042856;28;20197;-77
2022/08/23 12:34:02;;;;;;;6.77;2.20;;;7.60;91.10;;;;;;5047167;28;20175;-77
2022/08/23 12:36:55;;;;;;;4.97;2.53;;;7.60;91.10;;;;;;5053127;28;20205;-74
2022/08/23 12:39:34;;;;;;;5.70;1.87;;;7.60;90.60;;;;;;5044814;28;20300;-79
2022/08/23 12:42:40;;;;;;;6.60;1.90;;;7.70;90.80;;;;;;5052042;28;20256;-77
2022/08/23 12:45:22;;;;;;;4.63;1.80;;;7.70;90.50;;;;;;5029823;28;20224;-78
2022/08/23 12:47:59;;;;;;;3.83;1.77;;;7.70;90.40;;;;;;5052660;28;20234;-77
2022/08/23 12:50:38;;;;;;;2.33;1.60;;;7.70;90.10;;;;;;5052294;28;20185;-79
2022/08/23 12:53:29;;;;;;;4.13;1.83;;;7.70;89.80;;;;;;5037330;28;20246;-85
2022/08/23 12:56:14;;;;;;;6.87;2.13;;;7.70;90.00;;;;;;5052842;28;20180;-80
2022/08/23 12:58:50;;;;;;;3.13;1.60;;;7.70;90.10;;;;;;5039202;28;20184;-77
2022/08/23 13:01:33;;;;;;;5.53;1.67;;;7.70;89.90;;;;;;5037492;28;20202;-81
2022/08/23 13:04:08;;;;;;;5.67;1.93;;;7.70;89.70;;;;;;5045162;28;20244;-77
2022/08/23 13:06:45;;;;;;;3.57;1.93;;;7.70;89.90;;;;;;5026994;28;20248;-77
2022/08/23 13:09:30;;;;;;;3.27;1.70;;;7.70;89.40;;;;;;5044173;28;20184;-76
2022/08/23 13:11:59;;;;;;;3.27;2.03;;;7.80;89.60;;;;;;5049798;28;20339;-77
2022/08/23 13:14:36;;;;;;;7.73;1.87;;;7.80;89.30;;;;;;5053012;28;20262;-78
2022/08/23 13:17:21;;;;;;;4.20;2.10;;;7.80;89.10;;;;;;5055705;28;20190;-74
2022/08/23 13:19:51;;;;;;;5.77;2.00;;;7.80;88.60;;;;;;5047250;28;20176;-73
2022/08/23 13:22:20;;;;;;;3.70;1.63;;;7.80;88.10;;;;;;5055008;28;20208;-74
2022/08/23 13:24:58;;;;;;;5.57;2.00;;;7.90;88.10;;;;;;5056684;28;20176;-74
2022/08/23 13:27:30;;;;;;;6.87;1.73;;;7.90;87.70;;;;;;5055813;28;20179;-78
2022/08/23 13:30:10;;;;;;;3.73;1.90;;;8.00;87.50;;;;;;5046516;28;20205;-75
2022/08/23 13:32:39;;;;;;;3.33;2.00;;;7.90;87.30;;;;;;5030435;28;20197;-74
2022/08/23 13:35:31;;;;;;;3.60;1.80;;;8.00;87.20;;;;;;5051586;28;20196;-76
2022/08/23 13:38:07;;;;;;;4.20;1.60;;;8.00;87.00;;;;;;5040561;28;20193;-76